sensor_id;sensor_type;location;lat;lon;timestamp;temperature;humidity
47482;DHT22;33219;47.410;9.730;2022-09-27T00:00:18;10.60;99.90
47482;DHT22;33219;47.410;9.730;2022-09-27T00:02:46;10.60;99.90
47482;DHT22;33219;47.410;9.730;2022-09-27T00:05:15;10.50;99.90
47482;DHT22;33219;47.410;9.730;2022-09-27T00:07:43;10.50;99.90
47482;DHT22;33219;47.410;9.730;2022-09-27T00:10:12;10.40;99.90
47482;DHT22;33219;47.410;9.730;2022-09-27T00:12:39;10.40;99.90
47482;DHT22;33219;47.410;9.730;2022-09-27T00:15:08;10.30;99.90
47482;DHT22;33219;47.410;9.730;2022-09-27T00:17:37;10.30;99.90
47482;DHT22;33219;47.410;9.730;2022-09-27T00:20:05;10.20;99.90
47482;DHT22;33219;47.410;9.730;2022-09-27T00:22:33;10.20;99.90
47482;DHT22;33219;47.410;9.730;2022-09-27T00:25:01;10.20;99.90
47482;DHT22;33219;47.410;9.730;2022-09-27T00:27:30;10.20;99.90
47482;DHT22;33219;47.410;9.730;2022-09-27T00:29:58;10.20;99.90
47482;DHT22;33219;47.410;9.730;2022-09-27T00:32:26;10.20;99.90
47482;DHT22;33219;47.410;9.730;2022-09-27T00:34:53;10.20;99.90
47482;DHT22;33219;47.410;9.730;2022-09-27T00:37:21;10.20;99.90
47482;DHT22;33219;47.410;9.730;2022-09-27T00:39:48;10.20;99.90
47482;DHT22;33219;47.410;9.730;2022-09-27T00:42:16;10.20;99.90
47482;DHT22;33219;47.410;9.730;2022-09-27T00:45:01;10.20;99.90
47482;DHT22;33219;47.410;9.730;2022-09-27T00:47:53;10.20;99.90
47482;DHT22;33219;47.410;9.730;2022-09-27T00:50:29;10.20;99.90
47482;DHT22;33219;47.410;9.730;2022-09-27T00:53:13;10.10;99.90
47482;DHT22;33219;47.410;9.730;2022-09-27T00:55:41;10.10;99.90
47482;DHT22;33219;47.410;9.730;2022-09-27T00:58:10;10.10;99.90
47482;DHT22;33219;47.410;9.730;2022-09-27T01:00:41;10.10;99.90
47482;DHT22;33219;47.410;9.730;2022-09-27T01:03:11;10.00;99.90
47482;DHT22;33219;47.410;9.730;2022-09-27T01:05:40;10.00;99.90
47482;DHT22;33219;47.410;9.730;2022-09-27T01:08:08;10.00;99.90
47482;DHT22;33219;47.410;9.730;2022-09-27T01:10:39;10.00;99.90
47482;DHT22;33219;47.410;9.730;2022-09-27T01:23:55;9.80;99.90
47482;DHT22;33219;47.410;9.730;2022-09-27T01:29:10;9.80;99.90
47482;DHT22;33219;47.410;9.730;2022-09-27T01:34:25;9.70;99.90
47482;DHT22;33219;47.410;9.730;2022-09-27T01:40:04;9.70;99.90
47482;DHT22;33219;47.410;9.730;2022-09-27T01:42:35;9.70;99.90
47482;DHT22;33219;47.410;9.730;2022-09-27T01:47:54;9.70;99.90
47482;DHT22;33219;47.410;9.730;2022-09-27T01:50:38;9.70;99.90
47482;DHT22;33219;47.410;9.730;2022-09-27T01:55:37;9.70;99.90
47482;DHT22;33219;47.410;9.730;2022-09-27T01:58:11;9.60;99.90
47482;DHT22;33219;47.410;9.730;2022-09-27T02:00:39;9.60;99.90
47482;DHT22;33219;47.410;9.730;2022-09-27T02:03:18;9.70;99.90
47482;DHT22;33219;47.410;9.730;2022-09-27T02:05:50;9.70;99.90
47482;DHT22;33219;47.410;9.730;2022-09-27T02:11:08;9.70;99.90
47482;DHT22;33219;47.410;9.730;2022-09-27T02:13:59;9.70;99.90
47482;DHT22;33219;47.410;9.730;2022-09-27T02:16:49;9.70;99.90
47482;DHT22;33219;47.410;9.730;2022-09-27T02:19:46;9.70;99.90
47482;DHT22;33219;47.410;9.730;2022-09-27T02:28:26;9.70;99.90
47482;DHT22;33219;47.410;9.730;2022-09-27T02:30:54;9.70;99.90
47482;DHT22;33219;47.410;9.730;2022-09-27T02:33:25;9.70;99.90
47482;DHT22;33219;47.410;9.730;2022-09-27T02:35:52;9.70;99.90
47482;DHT22;33219;47.410;9.730;2022-09-27T02:38:20;9.80;99.90
47482;DHT22;33219;47.410;9.730;2022-09-27T02:40:48;9.80;99.90
47482;DHT22;33219;47.410;9.730;2022-09-27T02:43:17;9.80;99.90
47482;DHT22;33219;47.410;9.730;2022-09-27T02:48:27;9.80;99.90
47482;DHT22;33219;47.410;9.730;2022-09-27T02:51:06;9.80;99.90
47482;DHT22;33219;47.410;9.730;2022-09-27T02:53:58;9.80;99.90
47482;DHT22;33219;47.410;9.730;2022-09-27T02:57:16;9.80;99.90
47482;DHT22;33219;47.410;9.730;2022-09-27T02:59:14;9.70;99.90
47482;DHT22;33219;47.410;9.730;2022-09-27T03:04:33;9.70;99.90
47482;DHT22;33219;47.410;9.730;2022-09-27T03:06:57;9.70;99.90
47482;DHT22;33219;47.410;9.730;2022-09-27T03:09:29;9.70;99.90
47482;DHT22;33219;47.410;9.730;2022-09-27T03:11:56;9.70;99.90
47482;DHT22;33219;47.410;9.730;2022-09-27T03:14:24;9.70;99.90
47482;DHT22;33219;47.410;9.730;2022-09-27T03:16:51;9.60;99.90
47482;DHT22;33219;47.410;9.730;2022-09-27T03:19:19;9.60;99.90
47482;DHT22;33219;47.410;9.730;2022-09-27T03:21:46;9.70;99.90
47482;DHT22;33219;47.410;9.730;2022-09-27T03:24:14;9.70;99.90
47482;DHT22;33219;47.410;9.730;2022-09-27T03:26:41;9.70;99.90
47482;DHT22;33219;47.410;9.730;2022-09-27T03:29:09;9.70;99.90
47482;DHT22;33219;47.410;9.730;2022-09-27T03:31:37;9.70;99.90
47482;DHT22;33219;47.410;9.730;2022-09-27T03:34:05;9.80;99.90
47482;DHT22;33219;47.410;9.730;2022-09-27T03:36:32;9.80;99.90
47482;DHT22;33219;47.410;9.730;2022-09-27T03:39:00;9.90;99.90
47482;DHT22;33219;47.410;9.730;2022-09-27T03:41:29;9.80;99.90
47482;DHT22;33219;47.410;9.730;2022-09-27T03:43:56;9.80;99.90
47482;DHT22;33219;47.410;9.730;2022-09-27T03:46:25;9.80;99.90
47482;DHT22;33219;47.410;9.730;2022-09-27T03:48:53;9.70;99.90
47482;DHT22;33219;47.410;9.730;2022-09-27T03:51:20;9.70;99.90
47482;DHT22;33219;47.410;9.730;2022-09-27T03:53:48;9.70;99.90
47482;DHT22;33219;47.410;9.730;2022-09-27T03:56:17;9.70;99.90
47482;DHT22;33219;47.410;9.730;2022-09-27T03:58:44;9.70;99.90
47482;DHT22;33219;47.410;9.730;2022-09-27T04:01:12;9.70;99.90
47482;DHT22;33219;47.410;9.730;2022-09-27T04:03:39;9.70;99.90
47482;DHT22;33219;47.410;9.730;2022-09-27T04:06:07;9.70;99.90
47482;DHT22;33219;47.410;9.730;2022-09-27T04:08:35;9.70;99.90
47482;DHT22;33219;47.410;9.730;2022-09-27T04:11:03;9.70;99.90
47482;DHT22;33219;47.410;9.730;2022-09-27T04:13:30;9.70;99.90
47482;DHT22;33219;47.410;9.730;2022-09-27T04:15:58;9.60;99.90
47482;DHT22;33219;47.410;9.730;2022-09-27T04:18:27;9.60;99.90
47482;DHT22;33219;47.410;9.730;2022-09-27T04:20:55;9.60;99.90
47482;DHT22;33219;47.410;9.730;2022-09-27T04:23:22;9.70;99.90
47482;DHT22;33219;47.410;9.730;2022-09-27T04:25:50;9.70;99.90
47482;DHT22;33219;47.410;9.730;2022-09-27T04:28:17;9.70;99.90
47482;DHT22;33219;47.410;9.730;2022-09-27T04:30:45;9.70;99.90
47482;DHT22;33219;47.410;9.730;2022-09-27T04:33:14;9.70;99.90
47482;DHT22;33219;47.410;9.730;2022-09-27T04:35:42;9.70;99.90
47482;DHT22;33219;47.410;9.730;2022-09-27T04:38:27;9.70;99.90
47482;DHT22;33219;47.410;9.730;2022-09-27T04:40:55;9.70;99.90
47482;DHT22;33219;47.410;9.730;2022-09-27T04:43:22;9.70;99.90
47482;DHT22;33219;47.410;9.730;2022-09-27T04:45:50;9.80;99.90
47482;DHT22;33219;47.410;9.730;2022-09-27T04:48:17;9.80;99.90
47482;DHT22;33219;47.410;9.730;2022-09-27T04:50:45;9.80;99.90
47482;DHT22;33219;47.410;9.730;2022-09-27T04:53:15;9.70;99.90
47482;DHT22;33219;47.410;9.730;2022-09-27T04:55:46;9.70;99.90
47482;DHT22;33219;47.410;9.730;2022-09-27T04:58:13;9.60;99.90
47482;DHT22;33219;47.410;9.730;2022-09-27T05:00:41;9.60;99.90
47482;DHT22;33219;47.410;9.730;2022-09-27T05:03:09;9.80;99.90
47482;DHT22;33219;47.410;9.730;2022-09-27T05:05:36;9.80;99.90
47482;DHT22;33219;47.410;9.730;2022-09-27T05:08:04;9.80;99.90
47482;DHT22;33219;47.410;9.730;2022-09-27T05:10:31;9.70;99.90
47482;DHT22;33219;47.410;9.730;2022-09-27T05:12:59;9.70;99.90
47482;DHT22;33219;47.410;9.730;2022-09-27T05:15:26;9.80;99.90
47482;DHT22;33219;47.410;9.730;2022-09-27T05:17:54;9.80;99.90
47482;DHT22;33219;47.410;9.730;2022-09-27T05:20:21;9.80;99.90
47482;DHT22;33219;47.410;9.730;2022-09-27T05:22:51;9.80;99.90
47482;DHT22;33219;47.410;9.730;2022-09-27T05:25:18;9.70;99.90
47482;DHT22;33219;47.410;9.730;2022-09-27T05:27:49;9.70;99.90
47482;DHT22;33219;47.410;9.730;2022-09-27T05:30:17;9.70;99.90
47482;DHT22;33219;47.410;9.730;2022-09-27T05:32:46;9.60;99.90
47482;DHT22;33219;47.410;9.730;2022-09-27T05:37:54;9.50;99.90
47482;DHT22;33219;47.410;9.730;2022-09-27T05:40:54;9.40;99.90
47482;DHT22;33219;47.410;9.730;2022-09-27T05:43:54;9.40;99.90
47482;DHT22;33219;47.410;9.730;2022-09-27T05:49:11;9.40;99.90
47482;DHT22;33219;47.410;9.730;2022-09-27T05:52:02;9.30;99.90
47482;DHT22;33219;47.410;9.730;2022-09-27T05:54:54;9.20;99.90
47482;DHT22;33219;47.410;9.730;2022-09-27T05:57:29;9.20;99.90
47482;DHT22;33219;47.410;9.730;2022-09-27T06:00:37;9.10;99.90
47482;DHT22;33219;47.410;9.730;2022-09-27T06:03:03;9.10;99.90
47482;DHT22;33219;47.410;9.730;2022-09-27T06:05:41;9.20;99.90
47482;DHT22;33219;47.410;9.730;2022-09-27T06:08:21;9.20;99.90
47482;DHT22;33219;47.410;9.730;2022-09-27T06:11:26;9.20;99.90
47482;DHT22;33219;47.410;9.730;2022-09-27T06:14:12;9.10;99.90
47482;DHT22;33219;47.410;9.730;2022-09-27T06:20:22;9.10;99.90
47482;DHT22;33219;47.410;9.730;2022-09-27T06:38:49;9.00;99.90
47482;DHT22;33219;47.410;9.730;2022-09-27T06:41:41;9.00;99.90
47482;DHT22;33219;47.410;9.730;2022-09-27T06:54:21;9.10;99.90
47482;DHT22;33219;47.410;9.730;2022-09-27T06:57:09;9.20;99.90
47482;DHT22;33219;47.410;9.730;2022-09-27T07:03:11;9.20;99.90
47482;DHT22;33219;47.410;9.730;2022-09-27T07:06:02;9.20;99.90
47482;DHT22;33219;47.410;9.730;2022-09-27T07:08:23;9.20;99.90
47482;DHT22;33219;47.410;9.730;2022-09-27T07:11:08;9.30;99.90
47482;DHT22;33219;47.410;9.730;2022-09-27T07:13:44;9.20;99.90
47482;DHT22;33219;47.410;9.730;2022-09-27T07:16:37;9.30;99.90
47482;DHT22;33219;47.410;9.730;2022-09-27T07:19:20;9.20;99.90
47482;DHT22;33219;47.410;9.730;2022-09-27T07:22:12;9.20;99.90
47482;DHT22;33219;47.410;9.730;2022-09-27T07:24:47;9.10;99.90
47482;DHT22;33219;47.410;9.730;2022-09-27T07:31:09;9.00;99.90
47482;DHT22;33219;47.410;9.730;2022-09-27T07:34:02;9.10;99.90
47482;DHT22;33219;47.410;9.730;2022-09-27T07:36:40;9.10;99.90
47482;DHT22;33219;47.410;9.730;2022-09-27T07:51:18;9.10;99.90
47482;DHT22;33219;47.410;9.730;2022-09-27T07:54:13;9.10;99.90
47482;DHT22;33219;47.410;9.730;2022-09-27T07:57:02;9.00;99.90
47482;DHT22;33219;47.410;9.730;2022-09-27T07:59:44;8.90;99.90
47482;DHT22;33219;47.410;9.730;2022-09-27T08:09:09;8.40;99.90
47482;DHT22;33219;47.410;9.730;2022-09-27T08:15:06;8.10;99.90
47482;DHT22;33219;47.410;9.730;2022-09-27T08:18:11;8.00;99.90
47482;DHT22;33219;47.410;9.730;2022-09-27T08:32:47;7.90;99.90
47482;DHT22;33219;47.410;9.730;2022-09-27T08:38:32;7.90;99.90
47482;DHT22;33219;47.410;9.730;2022-09-27T08:56:14;8.30;99.90
47482;DHT22;33219;47.410;9.730;2022-09-27T08:59:09;8.40;99.90
47482;DHT22;33219;47.410;9.730;2022-09-27T09:54:06;12.00;99.90
47482;DHT22;33219;47.410;9.730;2022-09-27T09:56:44;12.50;99.90
47482;DHT22;33219;47.410;9.730;2022-09-27T09:59:39;12.60;99.90
47482;DHT22;33219;47.410;9.730;2022-09-27T10:02:06;12.80;99.90
47482;DHT22;33219;47.410;9.730;2022-09-27T10:10:13;13.10;99.90
47482;DHT22;33219;47.410;9.730;2022-09-27T10:16:08;13.00;99.90
47482;DHT22;33219;47.410;9.730;2022-09-27T10:18:40;12.70;99.90
47482;DHT22;33219;47.410;9.730;2022-09-27T10:24:38;12.00;99.90
47482;DHT22;33219;47.410;9.730;2022-09-27T10:27:55;11.90;99.90
47482;DHT22;33219;47.410;9.730;2022-09-27T10:34:15;11.80;99.90
47482;DHT22;33219;47.410;9.730;2022-09-27T10:36:30;11.80;99.90
47482;DHT22;33219;47.410;9.730;2022-09-27T10:39:22;11.80;99.90
47482;DHT22;33219;47.410;9.730;2022-09-27T10:41:56;11.70;99.90
47482;DHT22;33219;47.410;9.730;2022-09-27T10:44:39;11.70;99.90
47482;DHT22;33219;47.410;9.730;2022-09-27T10:47:12;11.70;99.90
47482;DHT22;33219;47.410;9.730;2022-09-27T10:49:47;11.60;99.90
47482;DHT22;33219;47.410;9.730;2022-09-27T10:52:22;11.60;99.90
47482;DHT22;33219;47.410;9.730;2022-09-27T10:54:55;11.50;99.90
47482;DHT22;33219;47.410;9.730;2022-09-27T10:57:28;11.60;99.90
47482;DHT22;33219;47.410;9.730;2022-09-27T11:00:02;11.50;99.90
47482;DHT22;33219;47.410;9.730;2022-09-27T11:02:40;11.50;99.90
47482;DHT22;33219;47.410;9.730;2022-09-27T11:07:57;11.40;99.90
47482;DHT22;33219;47.410;9.730;2022-09-27T11:10:35;11.30;99.90
47482;DHT22;33219;47.410;9.730;2022-09-27T11:13:09;11.40;99.90
47482;DHT22;33219;47.410;9.730;2022-09-27T11:16:02;11.40;99.90
47482;DHT22;33219;47.410;9.730;2022-09-27T11:18:35;11.40;99.90
47482;DHT22;33219;47.410;9.730;2022-09-27T11:26:26;11.60;99.90
47482;DHT22;33219;47.410;9.730;2022-09-27T11:35:18;11.70;99.90
47482;DHT22;33219;47.410;9.730;2022-09-27T12:09:31;10.00;99.90
47482;DHT22;33219;47.410;9.730;2022-09-27T12:12:51;9.90;99.90
47482;DHT22;33219;47.410;9.730;2022-09-27T12:30:10;9.20;99.90
47482;DHT22;33219;47.410;9.730;2022-09-27T12:35:27;9.30;99.90
47482;DHT22;33219;47.410;9.730;2022-09-27T12:38:18;9.20;99.90
47482;DHT22;33219;47.410;9.730;2022-09-27T12:40:51;9.20;99.90
47482;DHT22;33219;47.410;9.730;2022-09-27T12:43:21;9.10;99.90
47482;DHT22;33219;47.410;9.730;2022-09-27T12:46:02;9.20;99.90
47482;DHT22;33219;47.410;9.730;2022-09-27T12:51:24;9.30;99.90
47482;DHT22;33219;47.410;9.730;2022-09-27T12:54:22;9.50;99.90
47482;DHT22;33219;47.410;9.730;2022-09-27T13:05:58;10.60;99.90
47482;DHT22;33219;47.410;9.730;2022-09-27T13:14:32;11.00;99.90
47482;DHT22;33219;47.410;9.730;2022-09-27T13:20:47;11.20;99.90
47482;DHT22;33219;47.410;9.730;2022-09-27T13:29:24;11.90;99.90
47482;DHT22;33219;47.410;9.730;2022-09-27T13:32:21;12.00;99.90
47482;DHT22;33219;47.410;9.730;2022-09-27T13:37:47;12.30;99.90
47482;DHT22;33219;47.410;9.730;2022-09-27T13:40:31;12.30;99.90
47482;DHT22;33219;47.410;9.730;2022-09-27T13:46:00;12.40;99.90
47482;DHT22;33219;47.410;9.730;2022-09-27T13:51:29;12.50;99.90
47482;DHT22;33219;47.410;9.730;2022-09-27T13:56:49;12.70;99.90
47482;DHT22;33219;47.410;9.730;2022-09-27T13:59:30;12.90;99.90
47482;DHT22;33219;47.410;9.730;2022-09-27T14:02:03;13.00;99.90
47482;DHT22;33219;47.410;9.730;2022-09-27T14:04:41;13.20;99.90
47482;DHT22;33219;47.410;9.730;2022-09-27T14:07:17;13.20;99.90
47482;DHT22;33219;47.410;9.730;2022-09-27T14:09:51;13.20;99.80
47482;DHT22;33219;47.410;9.730;2022-09-27T14:12:37;13.20;99.90
47482;DHT22;33219;47.410;9.730;2022-09-27T14:15:17;13.40;99.90
47482;DHT22;33219;47.410;9.730;2022-09-27T14:17:45;13.50;99.90
47482;DHT22;33219;47.410;9.730;2022-09-27T14:20:37;13.60;99.90
47482;DHT22;33219;47.410;9.730;2022-09-27T14:23:15;13.60;99.20
47482;DHT22;33219;47.410;9.730;2022-09-27T14:25:51;13.60;99.10
47482;DHT22;33219;47.410;9.730;2022-09-27T14:28:21;13.40;99.50
47482;DHT22;33219;47.410;9.730;2022-09-27T14:33:39;13.20;99.80
47482;DHT22;33219;47.410;9.730;2022-09-27T14:36:16;13.20;99.40
47482;DHT22;33219;47.410;9.730;2022-09-27T14:38:56;13.20;99.90
47482;DHT22;33219;47.410;9.730;2022-09-27T14:41:25;13.30;99.70
47482;DHT22;33219;47.410;9.730;2022-09-27T14:43:53;13.30;99.80
47482;DHT22;33219;47.410;9.730;2022-09-27T14:46:30;13.30;99.30
47482;DHT22;33219;47.410;9.730;2022-09-27T14:49:08;13.30;99.70
47482;DHT22;33219;47.410;9.730;2022-09-27T14:51:31;13.40;99.90
47482;DHT22;33219;47.410;9.730;2022-09-27T14:54:00;13.50;99.90
47482;DHT22;33219;47.410;9.730;2022-09-27T14:56:33;13.30;99.90
47482;DHT22;33219;47.410;9.730;2022-09-27T14:59:12;13.30;99.90
47482;DHT22;33219;47.410;9.730;2022-09-27T15:01:39;13.10;99.90
47482;DHT22;33219;47.410;9.730;2022-09-27T15:04:12;13.00;99.90
47482;DHT22;33219;47.410;9.730;2022-09-27T15:06:40;13.00;99.90
47482;DHT22;33219;47.410;9.730;2022-09-27T15:09:13;13.00;99.90
47482;DHT22;33219;47.410;9.730;2022-09-27T15:11:42;12.90;99.90
47482;DHT22;33219;47.410;9.730;2022-09-27T15:14:15;12.90;99.90
47482;DHT22;33219;47.410;9.730;2022-09-27T15:16:47;12.90;99.90
47482;DHT22;33219;47.410;9.730;2022-09-27T15:19:16;12.90;99.90
47482;DHT22;33219;47.410;9.730;2022-09-27T15:21:45;12.90;99.90
47482;DHT22;33219;47.410;9.730;2022-09-27T15:24:37;12.90;99.90
47482;DHT22;33219;47.410;9.730;2022-09-27T15:27:17;12.70;99.40
47482;DHT22;33219;47.410;9.730;2022-09-27T15:29:52;12.60;99.80
47482;DHT22;33219;47.410;9.730;2022-09-27T15:32:23;12.50;99.90
47482;DHT22;33219;47.410;9.730;2022-09-27T15:34:52;12.40;99.90
47482;DHT22;33219;47.410;9.730;2022-09-27T15:39:58;12.40;99.90
47482;DHT22;33219;47.410;9.730;2022-09-27T15:42:26;12.40;99.90
47482;DHT22;33219;47.410;9.730;2022-09-27T15:44:55;12.50;99.90
47482;DHT22;33219;47.410;9.730;2022-09-27T15:52:47;12.30;99.90
47482;DHT22;33219;47.410;9.730;2022-09-27T15:55:20;12.30;99.90
47482;DHT22;33219;47.410;9.730;2022-09-27T15:58:04;12.30;99.90
47482;DHT22;33219;47.410;9.730;2022-09-27T16:00:34;12.40;99.90
47482;DHT22;33219;47.410;9.730;2022-09-27T16:03:01;12.50;99.90
47482;DHT22;33219;47.410;9.730;2022-09-27T16:05:29;12.50;99.40
47482;DHT22;33219;47.410;9.730;2022-09-27T16:07:58;12.40;99.90
47482;DHT22;33219;47.410;9.730;2022-09-27T16:10:40;12.30;99.90
47482;DHT22;33219;47.410;9.730;2022-09-27T16:13:08;12.20;99.90
47482;DHT22;33219;47.410;9.730;2022-09-27T16:15:36;12.10;99.90
47482;DHT22;33219;47.410;9.730;2022-09-27T16:18:04;12.10;99.90
47482;DHT22;33219;47.410;9.730;2022-09-27T16:20:31;12.00;99.90
47482;DHT22;33219;47.410;9.730;2022-09-27T16:22:59;11.90;99.90
47482;DHT22;33219;47.410;9.730;2022-09-27T16:25:27;11.90;99.90
47482;DHT22;33219;47.410;9.730;2022-09-27T16:28:01;11.90;99.90
47482;DHT22;33219;47.410;9.730;2022-09-27T16:30:29;11.80;99.90
47482;DHT22;33219;47.410;9.730;2022-09-27T16:32:58;11.70;99.90
47482;DHT22;33219;47.410;9.730;2022-09-27T16:35:26;11.60;99.90
47482;DHT22;33219;47.410;9.730;2022-09-27T16:37:54;11.40;99.90
47482;DHT22;33219;47.410;9.730;2022-09-27T16:40:21;11.30;99.90
47482;DHT22;33219;47.410;9.730;2022-09-27T16:42:50;11.10;99.90
47482;DHT22;33219;47.410;9.730;2022-09-27T16:45:18;11.00;99.90
47482;DHT22;33219;47.410;9.730;2022-09-27T16:47:46;10.90;99.90
47482;DHT22;33219;47.410;9.730;2022-09-27T16:50:14;10.80;99.90
47482;DHT22;33219;47.410;9.730;2022-09-27T16:53:00;10.70;99.90
47482;DHT22;33219;47.410;9.730;2022-09-27T16:55:27;10.60;99.90
47482;DHT22;33219;47.410;9.730;2022-09-27T16:57:57;10.50;99.90
47482;DHT22;33219;47.410;9.730;2022-09-27T17:00:25;10.40;99.90
47482;DHT22;33219;47.410;9.730;2022-09-27T17:02:53;10.40;99.90
47482;DHT22;33219;47.410;9.730;2022-09-27T17:05:21;10.30;99.90
47482;DHT22;33219;47.410;9.730;2022-09-27T17:07:53;10.30;99.90
47482;DHT22;33219;47.410;9.730;2022-09-27T17:10:21;10.30;99.90
47482;DHT22;33219;47.410;9.730;2022-09-27T17:12:49;10.30;99.90
47482;DHT22;33219;47.410;9.730;2022-09-27T17:15:17;10.30;99.90
47482;DHT22;33219;47.410;9.730;2022-09-27T17:17:49;10.20;99.90
47482;DHT22;33219;47.410;9.730;2022-09-27T17:20:16;10.10;99.90
47482;DHT22;33219;47.410;9.730;2022-09-27T17:22:44;10.00;99.90
47482;DHT22;33219;47.410;9.730;2022-09-27T17:25:12;10.00;99.90
47482;DHT22;33219;47.410;9.730;2022-09-27T17:27:39;10.00;99.90
47482;DHT22;33219;47.410;9.730;2022-09-27T17:30:07;9.90;99.90
47482;DHT22;33219;47.410;9.730;2022-09-27T17:32:35;9.90;99.90
47482;DHT22;33219;47.410;9.730;2022-09-27T17:35:04;9.80;99.90
47482;DHT22;33219;47.410;9.730;2022-09-27T17:37:33;9.80;99.90
47482;DHT22;33219;47.410;9.730;2022-09-27T17:40:01;9.80;99.90
47482;DHT22;33219;47.410;9.730;2022-09-27T17:42:29;9.80;99.90
47482;DHT22;33219;47.410;9.730;2022-09-27T17:44:57;9.70;99.90
47482;DHT22;33219;47.410;9.730;2022-09-27T17:47:24;9.70;99.90
47482;DHT22;33219;47.410;9.730;2022-09-27T17:50:10;9.70;99.90
47482;DHT22;33219;47.410;9.730;2022-09-27T17:52:50;9.60;99.90
47482;DHT22;33219;47.410;9.730;2022-09-27T17:55:19;9.50;99.90
47482;DHT22;33219;47.410;9.730;2022-09-27T17:57:50;9.50;99.90
47482;DHT22;33219;47.410;9.730;2022-09-27T18:00:18;9.50;99.90
47482;DHT22;33219;47.410;9.730;2022-09-27T18:02:46;9.40;99.90
47482;DHT22;33219;47.410;9.730;2022-09-27T18:05:14;9.30;99.90
47482;DHT22;33219;47.410;9.730;2022-09-27T18:07:43;9.30;99.90
47482;DHT22;33219;47.410;9.730;2022-09-27T18:10:11;9.30;99.90
47482;DHT22;33219;47.410;9.730;2022-09-27T18:12:38;9.30;99.90
47482;DHT22;33219;47.410;9.730;2022-09-27T18:15:07;9.30;99.90
47482;DHT22;33219;47.410;9.730;2022-09-27T18:17:34;9.30;99.90
47482;DHT22;33219;47.410;9.730;2022-09-27T18:20:03;9.30;99.90
47482;DHT22;33219;47.410;9.730;2022-09-27T18:22:32;9.30;99.90
47482;DHT22;33219;47.410;9.730;2022-09-27T18:24:59;9.30;99.90
47482;DHT22;33219;47.410;9.730;2022-09-27T18:27:27;9.30;99.90
47482;DHT22;33219;47.410;9.730;2022-09-27T18:29:55;9.30;99.90
47482;DHT22;33219;47.410;9.730;2022-09-27T18:32:22;9.30;99.90
47482;DHT22;33219;47.410;9.730;2022-09-27T18:34:50;9.20;99.90
47482;DHT22;33219;47.410;9.730;2022-09-27T18:37:18;9.20;99.90
47482;DHT22;33219;47.410;9.730;2022-09-27T18:39:45;9.10;99.90
47482;DHT22;33219;47.410;9.730;2022-09-27T18:42:13;9.20;99.90
47482;DHT22;33219;47.410;9.730;2022-09-27T18:44:40;9.10;99.90
47482;DHT22;33219;47.410;9.730;2022-09-27T18:47:08;9.10;99.90
47482;DHT22;33219;47.410;9.730;2022-09-27T18:49:35;9.00;99.90
47482;DHT22;33219;47.410;9.730;2022-09-27T18:52:03;9.00;99.90
47482;DHT22;33219;47.410;9.730;2022-09-27T18:54:30;9.00;99.90
47482;DHT22;33219;47.410;9.730;2022-09-27T18:56:58;8.90;99.90
47482;DHT22;33219;47.410;9.730;2022-09-27T18:59:26;8.90;99.90
47482;DHT22;33219;47.410;9.730;2022-09-27T19:01:54;8.90;99.90
47482;DHT22;33219;47.410;9.730;2022-09-27T19:04:21;8.90;99.90
47482;DHT22;33219;47.410;9.730;2022-09-27T19:06:53;8.90;99.90
47482;DHT22;33219;47.410;9.730;2022-09-27T19:09:21;8.90;99.90
47482;DHT22;33219;47.410;9.730;2022-09-27T19:11:50;8.90;99.90
47482;DHT22;33219;47.410;9.730;2022-09-27T19:14:20;8.90;99.90
47482;DHT22;33219;47.410;9.730;2022-09-27T19:16:48;8.90;99.90
47482;DHT22;33219;47.410;9.730;2022-09-27T19:19:17;8.90;99.90
47482;DHT22;33219;47.410;9.730;2022-09-27T19:21:45;8.80;99.90
47482;DHT22;33219;47.410;9.730;2022-09-27T19:24:13;8.90;99.90
47482;DHT22;33219;47.410;9.730;2022-09-27T19:26:41;8.80;99.90
47482;DHT22;33219;47.410;9.730;2022-09-27T19:29:10;8.80;99.90
47482;DHT22;33219;47.410;9.730;2022-09-27T19:31:38;8.80;99.90
47482;DHT22;33219;47.410;9.730;2022-09-27T19:34:05;8.80;99.90
47482;DHT22;33219;47.410;9.730;2022-09-27T19:36:33;8.80;99.90
47482;DHT22;33219;47.410;9.730;2022-09-27T19:39:01;8.70;99.90
47482;DHT22;33219;47.410;9.730;2022-09-27T19:41:28;8.70;99.90
47482;DHT22;33219;47.410;9.730;2022-09-27T19:43:56;8.70;99.90
47482;DHT22;33219;47.410;9.730;2022-09-27T19:46:24;8.70;99.90
47482;DHT22;33219;47.410;9.730;2022-09-27T19:48:52;8.70;99.90
47482;DHT22;33219;47.410;9.730;2022-09-27T19:51:24;8.70;99.90
47482;DHT22;33219;47.410;9.730;2022-09-27T19:53:52;8.60;99.90
47482;DHT22;33219;47.410;9.730;2022-09-27T19:56:21;8.60;99.90
47482;DHT22;33219;47.410;9.730;2022-09-27T19:58:49;8.50;99.90
47482;DHT22;33219;47.410;9.730;2022-09-27T20:01:21;8.50;99.90
47482;DHT22;33219;47.410;9.730;2022-09-27T20:03:51;8.50;99.90
47482;DHT22;33219;47.410;9.730;2022-09-27T20:06:19;8.50;99.90
47482;DHT22;33219;47.410;9.730;2022-09-27T20:08:48;8.40;99.90
47482;DHT22;33219;47.410;9.730;2022-09-27T20:11:18;8.40;99.90
47482;DHT22;33219;47.410;9.730;2022-09-27T20:13:46;8.40;99.90
47482;DHT22;33219;47.410;9.730;2022-09-27T20:16:19;8.50;99.90
47482;DHT22;33219;47.410;9.730;2022-09-27T20:18:49;8.50;99.90
47482;DHT22;33219;47.410;9.730;2022-09-27T20:21:18;8.40;99.90
47482;DHT22;33219;47.410;9.730;2022-09-27T20:23:50;8.50;99.90
47482;DHT22;33219;47.410;9.730;2022-09-27T20:26:19;8.50;99.90
47482;DHT22;33219;47.410;9.730;2022-09-27T20:28:50;8.50;99.90
47482;DHT22;33219;47.410;9.730;2022-09-27T20:31:20;8.50;99.90
47482;DHT22;33219;47.410;9.730;2022-09-27T20:33:48;8.50;99.90
47482;DHT22;33219;47.410;9.730;2022-09-27T20:36:25;8.50;99.90
47482;DHT22;33219;47.410;9.730;2022-09-27T20:38:52;8.50;99.90
47482;DHT22;33219;47.410;9.730;2022-09-27T20:41:21;8.50;99.90
47482;DHT22;33219;47.410;9.730;2022-09-27T20:43:51;8.50;99.90
47482;DHT22;33219;47.410;9.730;2022-09-27T20:46:20;8.50;99.90
47482;DHT22;33219;47.410;9.730;2022-09-27T20:48:53;8.50;99.90
47482;DHT22;33219;47.410;9.730;2022-09-27T20:51:22;8.50;99.90
47482;DHT22;33219;47.410;9.730;2022-09-27T20:53:50;8.50;99.90
47482;DHT22;33219;47.410;9.730;2022-09-27T20:56:28;8.60;99.90
47482;DHT22;33219;47.410;9.730;2022-09-27T20:58:54;8.60;99.90
47482;DHT22;33219;47.410;9.730;2022-09-27T21:01:23;8.60;99.90
47482;DHT22;33219;47.410;9.730;2022-09-27T21:04:01;8.60;99.90
47482;DHT22;33219;47.410;9.730;2022-09-27T21:06:30;8.60;99.90
47482;DHT22;33219;47.410;9.730;2022-09-27T21:08:59;8.60;99.90
47482;DHT22;33219;47.410;9.730;2022-09-27T21:11:27;8.50;99.90
47482;DHT22;33219;47.410;9.730;2022-09-27T21:13:54;8.50;99.90
47482;DHT22;33219;47.410;9.730;2022-09-27T21:16:24;8.50;99.90
47482;DHT22;33219;47.410;9.730;2022-09-27T21:18:53;8.50;99.90
47482;DHT22;33219;47.410;9.730;2022-09-27T21:21:22;8.50;99.90
47482;DHT22;33219;47.410;9.730;2022-09-27T21:23:59;8.50;99.90
47482;DHT22;33219;47.410;9.730;2022-09-27T21:26:25;8.50;99.90
47482;DHT22;33219;47.410;9.730;2022-09-27T21:28:54;8.50;99.90